Time;durP1;ratioP1;P1;durP2;ratioP2;P2;SDS_P1;SDS_P2;PMS_P1;PMS_P2;Temp;Humidity;BMP_temperature;BMP_pressure;BME280_temperature;BME280_humidity;BME280_pressure;Samples;Min_cycle;Max_cycle;Signal;HPM_P1;HPM_P2
2022/05/29 00:00:51;;;;;;;2.13;1.00;;;11.50;72.50;;;;;;5115283;28;20102;-29
2022/05/29 00:06:41;;;;;;;4.35;1.38;;;11.50;72.70;;;;;;5116612;28;20023;-30
2022/05/29 00:09:10;;;;;;;3.70;1.13;;;11.40;72.60;;;;;;5116488;28;20019;-29
2022/05/29 00:11:36;;;;;;;4.03;1.10;;;11.50;72.70;;;;;;5116402;28;20030;-31
2022/05/29 00:14:03;;;;;;;4.43;1.20;;;11.50;72.80;;;;;;5116748;28;20447;-29
2022/05/29 00:16:28;;;;;;;3.17;1.30;;;11.40;72.70;;;;;;5116780;28;20087;-31
2022/05/29 00:18:54;;;;;;;2.22;1.20;;;11.50;72.90;;;;;;5116198;28;20451;-29
2022/05/29 00:21:20;;;;;;;5.70;1.40;;;11.40;72.90;;;;;;5116240;28;20053;-30
2022/05/29 00:23:49;;;;;;;5.30;1.20;;;11.50;73.10;;;;;;5116179;28;20110;-30
2022/05/29 00:26:18;;;;;;;5.78;1.48;;;11.40;73.10;;;;;;5116282;28;20031;-30
2022/05/29 00:28:44;;;;;;;4.95;1.63;;;11.50;73.20;;;;;;5116043;28;20028;-32
2022/05/29 00:31:12;;;;;;;2.92;1.00;;;11.50;73.20;;;;;;5116026;28;20024;-30
2022/05/29 00:33:38;;;;;;;3.25;1.40;;;11.50;73.20;;;;;;5116152;28;20019;-34
2022/05/29 00:36:03;;;;;;;3.45;1.05;;;11.50;73.30;;;;;;5116116;28;20032;-43
2022/05/29 00:38:34;;;;;;;2.45;1.10;;;11.60;73.40;;;;;;5115948;28;20035;-43
2022/05/29 00:41:17;;;;;;;3.95;1.20;;;11.50;73.40;;;;;;5115808;28;20110;-42
2022/05/29 00:44:04;;;;;;;3.55;1.15;;;11.50;73.50;;;;;;5115980;28;20114;-42
2022/05/29 00:46:31;;;;;;;4.00;1.20;;;11.60;73.60;;;;;;5116013;28;20024;-41
2022/05/29 00:48:57;;;;;;;3.75;1.20;;;11.50;73.60;;;;;;5115666;28;20012;-42
2022/05/29 00:51:23;;;;;;;3.47;1.27;;;11.50;73.70;;;;;;5115699;27;20145;-38
2022/05/29 00:53:49;;;;;;;4.95;1.42;;;11.50;73.90;;;;;;5115803;28;20023;-39
2022/05/29 00:56:16;;;;;;;3.05;1.13;;;11.50;74.10;;;;;;5115355;28;20062;-37
2022/05/29 00:58:43;;;;;;;3.67;1.40;;;11.60;74.30;;;;;;5115110;27;20031;-42
2022/05/29 01:01:10;;;;;;;4.25;1.33;;;11.60;74.40;;;;;;5115345;28;20379;-43
2022/05/29 01:03:36;;;;;;;5.40;1.27;;;11.50;74.50;;;;;;5115758;28;20024;-40
2022/05/29 01:06:01;;;;;;;5.28;1.67;;;11.60;74.60;;;;;;5115337;28;20028;-41
2022/05/29 01:08:36;;;;;;;4.88;1.33;;;11.60;74.70;;;;;;5115186;28;20103;-40
2022/05/29 01:11:30;;;;;;;4.07;1.40;;;11.50;74.90;;;;;;5115062;28;20031;-46
2022/05/29 01:14:23;;;;;;;5.95;1.30;;;11.60;75.30;;;;;;5114858;28;20057;-41
2022/05/29 01:16:56;;;;;;;3.92;1.40;;;11.50;75.90;;;;;;5115007;28;20098;-42
2022/05/29 01:19:34;;;;;;;3.40;1.13;;;11.50;75.30;;;;;;5115254;28;20020;-39
2022/05/29 01:22:08;;;;;;;2.30;1.10;;;11.50;75.40;;;;;;5115031;28;20030;-41
2022/05/29 01:24:52;;;;;;;3.25;1.50;;;11.40;75.60;;;;;;5115716;28;20032;-42
2022/05/29 01:27:33;;;;;;;3.67;1.50;;;11.40;75.80;;;;;;5114851;28;20019;-40
2022/05/29 01:30:04;;;;;;;2.95;1.20;;;11.40;75.80;;;;;;5114845;28;20479;-41
2022/05/29 01:33:01;;;;;;;5.10;1.33;;;11.50;75.90;;;;;;5114945;28;20517;-40
2022/05/29 01:35:33;;;;;;;3.33;1.42;;;11.50;75.90;;;;;;5114863;28;20031;-43
2022/05/29 01:38:04;;;;;;;6.20;1.45;;;11.50;75.80;;;;;;5115107;27;20051;-43
2022/05/29 01:41:07;;;;;;;3.83;1.38;;;11.50;75.90;;;;;;5113578;28;20019;-43
2022/05/29 01:43:51;;;;;;;3.05;1.48;;;11.50;76.10;;;;;;5092666;28;20038;-38
2022/05/29 01:46:23;;;;;;;;;;;11.50;76.10;;;;;;5114968;28;20547;-38
2022/05/29 01:49:13;;;;;;;5.13;1.42;;;11.50;76.00;;;;;;5113203;28;20377;-41
2022/05/29 01:52:01;;;;;;;4.88;1.83;;;11.40;76.00;;;;;;5114379;28;20028;-40
2022/05/29 01:54:34;;;;;;;5.57;1.80;;;11.40;76.10;;;;;;5114147;28;20588;-43
2022/05/29 01:57:08;;;;;;;3.28;1.50;;;11.50;76.10;;;;;;5112897;28;20139;-40
2022/05/29 01:59:59;;;;;;;4.10;1.92;;;11.40;76.20;;;;;;5114623;28;20084;-42
2022/05/29 02:03:00;;;;;;;5.15;1.73;;;11.50;76.40;;;;;;5114291;28;20439;-39
2022/05/29 02:05:43;;;;;;;5.45;1.80;;;11.50;76.50;;;;;;5113190;28;20118;-42
2022/05/29 02:08:24;;;;;;;5.80;1.77;;;11.50;76.40;;;;;;5114123;28;20071;-42
2022/05/29 02:10:55;;;;;;;4.40;1.90;;;11.40;77.00;;;;;;5113135;28;20073;-45
2022/05/29 02:13:34;;;;;;;3.30;1.80;;;11.40;76.50;;;;;;5114138;28;20034;-42
2022/05/29 02:16:24;;;;;;;6.82;1.70;;;11.40;76.70;;;;;;5114175;28;20487;-43
2022/05/29 02:19:08;;;;;;;3.72;1.80;;;11.40;76.70;;;;;;5113879;28;20479;-40
2022/05/29 02:22:01;;;;;;;3.42;1.70;;;11.40;76.80;;;;;;5113962;28;20028;-46
2022/05/29 02:24:37;;;;;;;4.65;2.00;;;11.40;76.80;;;;;;5113828;28;20026;-41
2022/05/29 02:27:26;;;;;;;6.57;2.10;;;11.40;77.50;;;;;;5113992;28;20052;-41
2022/05/29 02:29:53;;;;;;;6.78;1.80;;;11.40;77.00;;;;;;5113612;28;20027;-43
2022/05/29 02:32:24;;;;;;;3.13;1.60;;;11.30;76.90;;;;;;5113696;28;20019;-43
2022/05/29 02:35:05;;;;;;;4.40;1.75;;;11.30;77.00;;;;;;5113657;28;20023;-44
2022/05/29 02:37:43;;;;;;;7.78;2.30;;;11.30;77.00;;;;;;5113995;28;20041;-40
2022/05/29 02:40:21;;;;;;;3.95;1.70;;;11.20;77.00;;;;;;5113948;28;20536;-43
2022/05/29 02:43:14;;;;;;;5.22;1.83;;;11.20;77.10;;;;;;5113723;28;20513;-43
2022/05/29 02:45:52;;;;;;;3.60;1.70;;;11.20;77.30;;;;;;5113399;28;20024;-41
2022/05/29 02:48:17;;;;;;;4.90;1.83;;;11.20;77.30;;;;;;5113726;28;20542;-43
2022/05/29 02:51:04;;;;;;;4.28;1.90;;;11.20;77.40;;;;;;5113407;28;20055;-42
2022/05/29 02:53:33;;;;;;;5.35;1.67;;;11.20;77.40;;;;;;5113706;28;20443;-42
2022/05/29 02:56:03;;;;;;;4.60;1.95;;;11.20;77.50;;;;;;5113618;28;20073;-41
2022/05/29 02:58:31;;;;;;;4.07;1.38;;;11.10;77.50;;;;;;5113187;28;20073;-42
2022/05/29 03:01:25;;;;;;;3.60;1.52;;;11.10;77.60;;;;;;5112037;28;20084;-42
2022/05/29 03:04:28;;;;;;;2.75;1.58;;;11.10;77.80;;;;;;5113428;28;20114;-41
2022/05/29 03:07:31;;;;;;;4.18;1.48;;;11.10;77.80;;;;;;5113484;28;20491;-46
2022/05/29 03:10:17;;;;;;;4.85;1.60;;;11.10;77.90;;;;;;5113321;28;20532;-46
2022/05/29 03:12:54;;;;;;;4.60;1.17;;;11.00;78.00;;;;;;5113077;28;20080;-47
2022/05/29 03:15:41;;;;;;;2.78;1.10;;;11.10;78.00;;;;;;5113180;28;20031;-47
2022/05/29 03:18:32;;;;;;;2.40;1.30;;;11.10;78.10;;;;;;5112999;28;20028;-46
2022/05/29 03:21:07;;;;;;;4.63;1.60;;;11.10;78.20;;;;;;5113385;28;20111;-40
2022/05/29 03:24:00;;;;;;;3.85;1.50;;;11.00;78.10;;;;;;5117225;28;20507;-47
2022/05/29 03:27:03;;;;;;;2.83;1.40;;;11.00;78.40;;;;;;5117422;28;20020;-47
2022/05/29 03:29:44;;;;;;;4.00;1.50;;;11.00;78.40;;;;;;5117349;28;20720;-46
2022/05/29 03:32:11;;;;;;;3.13;1.35;;;11.00;78.40;;;;;;5117110;28;20024;-47
2022/05/29 03:34:36;;;;;;;2.25;1.48;;;11.00;78.50;;;;;;5117309;28;20387;-45
2022/05/29 03:37:03;;;;;;;5.28;1.52;;;11.10;78.70;;;;;;5117194;28;20028;-46
2022/05/29 03:39:28;;;;;;;3.75;1.50;;;11.00;78.60;;;;;;5117321;28;20534;-48
2022/05/29 03:41:55;;;;;;;1.88;1.40;;;11.10;78.70;;;;;;5117384;28;20061;-48
2022/05/29 03:44:22;;;;;;;3.97;1.40;;;11.00;78.70;;;;;;5116892;28;20032;-28
2022/05/29 03:46:48;;;;;;;3.88;1.55;;;11.10;78.70;;;;;;5116795;28;20548;-27
2022/05/29 03:49:19;;;;;;;2.80;1.55;;;11.10;78.80;;;;;;5116827;28;20023;-30
2022/05/29 03:51:45;;;;;;;2.03;1.20;;;11.10;78.90;;;;;;5116753;28;20479;-30
2022/05/29 03:54:11;;;;;;;4.70;1.50;;;11.10;78.80;;;;;;5116935;28;20034;-39
2022/05/29 03:56:37;;;;;;;3.35;1.50;;;11.20;78.80;;;;;;5120378;27;20043;-43
2022/05/29 03:59:04;;;;;;;2.97;1.65;;;11.20;78.80;;;;;;5124738;27;20075;-39
2022/05/29 04:01:31;;;;;;;3.33;1.60;;;11.20;78.80;;;;;;5115698;28;20030;-42
2022/05/29 04:03:57;;;;;;;3.55;1.40;;;11.30;78.80;;;;;;5115505;28;20027;-41
2022/05/29 04:06:26;;;;;;;2.08;1.30;;;11.30;78.70;;;;;;5116585;28;20028;-42
2022/05/29 04:14:22;;;;;;;3.13;1.40;;;11.50;78.50;;;;;;5116490;28;20038;-37
2022/05/29 04:16:49;;;;;;;2.80;1.42;;;11.50;78.40;;;;;;5115095;28;20119;-36
2022/05/29 04:19:14;;;;;;;4.20;1.50;;;11.50;78.30;;;;;;5116395;28;20031;-36
2022/05/29 04:21:40;;;;;;;3.70;1.77;;;11.50;78.40;;;;;;5115096;28;20032;-36
2022/05/29 04:24:06;;;;;;;2.85;1.50;;;11.50;78.30;;;;;;5116174;28;20039;-28
2022/05/29 04:26:33;;;;;;;4.30;1.50;;;11.60;78.40;;;;;;5116194;28;20478;-28
2022/05/29 04:29:01;;;;;;;5.15;1.92;;;11.50;78.30;;;;;;5116344;28;20031;-29
2022/05/29 04:31:27;;;;;;;4.72;1.60;;;11.50;78.20;;;;;;5116095;28;20056;-29
2022/05/29 04:33:52;;;;;;;5.72;1.50;;;11.60;78.30;;;;;;5114930;28;20035;-29
2022/05/29 04:36:18;;;;;;;3.83;1.83;;;11.50;78.30;;;;;;5115995;28;20042;-26
2022/05/29 04:38:43;;;;;;;5.18;1.65;;;11.50;78.40;;;;;;5116177;28;20050;-27
2022/05/29 04:41:09;;;;;;;1.80;1.17;;;11.40;78.50;;;;;;5115815;28;20031;-29
2022/05/29 04:43:36;;;;;;;4.45;1.60;;;11.40;78.60;;;;;;5115704;28;20088;-30
2022/05/29 04:46:02;;;;;;;2.72;1.35;;;11.30;78.70;;;;;;5115810;28;20089;-31
2022/05/29 04:48:28;;;;;;;4.22;1.50;;;11.30;78.80;;;;;;5115709;28;20038;-27
2022/05/29 04:50:58;;;;;;;2.40;1.55;;;11.20;78.90;;;;;;5115620;28;20032;-28
2022/05/29 04:53:24;;;;;;;3.35;1.52;;;11.20;79.00;;;;;;5116143;28;20111;-28
2022/05/29 04:55:53;;;;;;;3.92;1.67;;;11.20;79.10;;;;;;5114362;28;20039;-27
2022/05/29 04:58:18;;;;;;;3.90;1.30;;;11.20;79.20;;;;;;5115354;28;20081;-27
2022/05/29 05:00:44;;;;;;;3.20;1.50;;;11.20;79.20;;;;;;5115688;28;20027;-32
2022/05/29 05:03:10;;;;;;;4.43;1.90;;;11.20;79.20;;;;;;5115600;28;20027;-27
2022/05/29 05:05:36;;;;;;;3.83;1.70;;;11.20;79.20;;;;;;5115414;28;20482;-31
2022/05/29 05:08:03;;;;;;;2.88;1.35;;;11.20;79.20;;;;;;5115341;28;20023;-27
2022/05/29 05:10:28;;;;;;;3.38;1.40;;;11.30;79.30;;;;;;5115220;28;20482;-27
2022/05/29 05:12:54;;;;;;;3.05;1.40;;;11.30;79.20;;;;;;5115301;28;20043;-28
2022/05/29 05:15:20;;;;;;;3.78;1.50;;;11.40;79.10;;;;;;5115230;28;20027;-27
2022/05/29 05:17:45;;;;;;;3.75;1.40;;;11.50;79.00;;;;;;5115389;28;20119;-26
2022/05/29 05:20:12;;;;;;;5.10;1.50;;;11.50;78.90;;;;;;5115191;28;20368;-26
2022/05/29 05:22:38;;;;;;;4.22;1.58;;;11.60;78.90;;;;;;5114871;28;20031;-27
2022/05/29 05:25:05;;;;;;;3.17;1.60;;;11.60;78.80;;;;;;5115511;28;20055;-30
2022/05/29 05:27:30;;;;;;;3.63;1.45;;;11.60;78.80;;;;;;5114985;28;20035;-27
2022/05/29 05:29:56;;;;;;;2.03;1.25;;;11.70;78.80;;;;;;5114834;28;20471;-29
2022/05/29 05:32:21;;;;;;;2.00;1.23;;;11.70;78.70;;;;;;5115172;28;20019;-30
2022/05/29 05:34:47;;;;;;;3.45;1.15;;;11.70;78.80;;;;;;5114770;28;20498;-29
2022/05/29 05:37:14;;;;;;;2.45;1.17;;;11.80;78.90;;;;;;5114686;28;20028;-26
2022/05/29 05:39:42;;;;;;;2.78;1.38;;;11.80;78.90;;;;;;5114648;28;20031;-30
2022/05/29 05:42:08;;;;;;;3.22;1.20;;;11.70;78.90;;;;;;5114898;28;20084;-33
2022/05/29 05:44:33;;;;;;;2.90;1.50;;;11.70;79.10;;;;;;5114355;28;20550;-26
2022/05/29 05:46:59;;;;;;;2.60;1.45;;;11.70;79.20;;;;;;5114673;28;20027;-32
2022/05/29 05:49:25;;;;;;;3.25;1.30;;;11.70;79.20;;;;;;5114980;28;20034;-30
2022/05/29 05:51:51;;;;;;;2.50;1.20;;;11.70;79.30;;;;;;5114481;28;20082;-27
2022/05/29 05:54:17;;;;;;;5.18;1.40;;;11.70;79.50;;;;;;5114384;28;20023;-27
2022/05/29 05:56:50;;;;;;;3.83;1.30;;;11.80;79.60;;;;;;5114209;27;20035;-27
2022/05/29 05:59:16;;;;;;;3.03;1.10;;;11.90;79.70;;;;;;5113085;28;20139;-29
2022/05/29 06:01:41;;;;;;;2.47;1.20;;;11.90;79.70;;;;;;5112918;28;20338;-29
2022/05/29 06:04:07;;;;;;;2.00;1.08;;;11.90;79.70;;;;;;5114130;28;20036;-27
2022/05/29 06:06:33;;;;;;;2.30;1.40;;;12.00;79.80;;;;;;5114266;28;20046;-31
2022/05/29 06:08:59;;;;;;;2.70;1.30;;;12.00;79.70;;;;;;5114126;28;20543;-31
2022/05/29 06:11:26;;;;;;;3.13;1.15;;;12.10;79.60;;;;;;5114561;28;20110;-27
2022/05/29 06:13:52;;;;;;;3.40;1.25;;;12.20;79.50;;;;;;5114265;28;20036;-29
2022/05/29 06:16:18;;;;;;;3.50;1.30;;;12.30;79.30;;;;;;5114274;28;20028;-28
2022/05/29 06:18:43;;;;;;;2.92;1.08;;;12.30;79.20;;;;;;5112835;28;20031;-28
2022/05/29 06:21:09;;;;;;;3.25;1.20;;;12.40;79.10;;;;;;5114107;28;20023;-31
2022/05/29 06:23:36;;;;;;;4.07;1.20;;;12.40;79.10;;;;;;5113729;28;20031;-28
2022/05/29 06:26:03;;;;;;;3.83;1.10;;;12.50;79.00;;;;;;5113812;28;20034;-32
2022/05/29 06:28:29;;;;;;;3.28;1.13;;;12.60;78.80;;;;;;5113903;28;20390;-32
2022/05/29 06:30:55;;;;;;;1.80;1.00;;;12.60;78.70;;;;;;5114022;28;20024;-28
2022/05/29 06:33:20;;;;;;;2.22;1.00;;;12.60;78.60;;;;;;5113648;28;20030;-47
2022/05/29 06:35:46;;;;;;;2.75;1.10;;;12.70;78.50;;;;;;5113500;28;20035;-47
2022/05/29 06:38:12;;;;;;;1.60;1.20;;;12.60;78.30;;;;;;5113405;28;20364;-47
2022/05/29 06:40:42;;;;;;;3.70;1.27;;;12.60;78.10;;;;;;5113323;28;20074;-47
2022/05/29 06:43:09;;;;;;;2.30;0.95;;;12.60;78.10;;;;;;5113552;28;20391;-47
2022/05/29 06:45:35;;;;;;;3.83;0.90;;;12.60;78.10;;;;;;5113629;28;20043;-47
2022/05/29 06:48:01;;;;;;;2.65;1.20;;;12.60;78.10;;;;;;5113280;28;20055;-47
2022/05/29 06:50:27;;;;;;;1.60;1.10;;;12.50;78.20;;;;;;5113415;28;20053;-48
2022/05/29 06:52:53;;;;;;;1.83;0.80;;;12.40;78.40;;;;;;5113288;28;20066;-39
2022/05/29 06:55:21;;;;;;;2.55;1.50;;;12.30;78.70;;;;;;5113098;28;20028;-42
2022/05/29 06:57:47;;;;;;;2.53;1.15;;;12.30;79.00;;;;;;5112984;28;20121;-42
2022/05/29 07:08:30;;;;;;;2.63;1.13;;;12.30;79.40;;;;;;5113285;28;20160;-42
2022/05/29 07:11:05;;;;;;;2.28;1.00;;;12.40;79.40;;;;;;5113061;28;20486;-43
2022/05/29 07:13:32;;;;;;;1.95;1.00;;;12.50;79.40;;;;;;5113289;28;20083;-41
2022/05/29 07:15:58;;;;;;;1.92;1.00;;;12.50;79.30;;;;;;5113030;28;20035;-42
2022/05/29 07:18:23;;;;;;;2.45;1.00;;;12.60;79.10;;;;;;5113194;28;20157;-39
2022/05/29 07:20:49;;;;;;;1.98;1.10;;;12.70;79.00;;;;;;5112856;28;20065;-44
2022/05/29 07:23:14;;;;;;;3.47;1.27;;;12.70;78.90;;;;;;5113002;28;20032;-42
2022/05/29 07:25:41;;;;;;;2.85;1.13;;;12.80;78.90;;;;;;5113057;28;20022;-44
2022/05/29 07:28:08;;;;;;;2.28;1.20;;;12.90;78.70;;;;;;5112862;28;20024;-43
2022/05/29 07:30:34;;;;;;;2.25;0.73;;;13.00;78.50;;;;;;5111601;28;20028;-43
2022/05/29 07:33:00;;;;;;;1.33;0.80;;;13.20;78.40;;;;;;5112981;28;20372;-39
2022/05/29 07:35:27;;;;;;;2.03;0.95;;;13.20;78.50;;;;;;5112927;28;20031;-43
2022/05/29 07:37:52;;;;;;;2.45;0.82;;;13.30;77.80;;;;;;5112804;28;20043;-43
2022/05/29 07:40:18;;;;;;;2.17;0.82;;;13.30;78.30;;;;;;5111461;28;20043;-41
2022/05/29 07:45:28;;;;;;;2.28;1.08;;;13.40;77.20;;;;;;5112880;28;20101;-39
2022/05/29 07:47:55;;;;;;;1.85;0.98;;;13.40;77.10;;;;;;5112689;28;20494;-42
2022/05/29 07:50:22;;;;;;;1.70;0.80;;;13.30;77.20;;;;;;5113204;28;20102;-42
2022/05/29 07:52:51;;;;;;;3.40;1.10;;;13.20;77.40;;;;;;5112922;28;20100;-44
2022/05/29 07:55:17;;;;;;;2.25;0.93;;;13.10;77.40;;;;;;5112546;28;20027;-43
2022/05/29 07:57:43;;;;;;;3.05;1.13;;;13.00;77.60;;;;;;5112810;28;20328;-43
2022/05/29 08:00:11;;;;;;;2.83;1.27;;;12.90;77.70;;;;;;5112604;28;20047;-40
2022/05/29 08:02:37;;;;;;;3.60;1.10;;;12.80;77.90;;;;;;5112816;28;20336;-41
2022/05/29 08:05:04;;;;;;;2.28;0.90;;;12.80;78.10;;;;;;5112802;28;20036;-42
2022/05/29 08:07:30;;;;;;;3.45;1.13;;;12.80;78.40;;;;;;5112918;28;20471;-43
2022/05/29 08:09:56;;;;;;;1.83;0.80;;;12.90;78.50;;;;;;5116059;28;20035;-44
2022/05/29 08:12:22;;;;;;;3.00;1.00;;;13.00;78.40;;;;;;5116564;28;20027;-44
2022/05/29 08:14:47;;;;;;;3.53;1.20;;;13.10;78.50;;;;;;5116312;28;20059;-43
2022/05/29 08:17:13;;;;;;;3.60;1.10;;;13.10;79.10;;;;;;5116291;28;20390;-44
2022/05/29 08:19:39;;;;;;;3.45;1.17;;;13.30;78.40;;;;;;5116352;28;20035;-39
2022/05/29 08:22:05;;;;;;;3.47;1.08;;;13.40;78.30;;;;;;5116486;28;20076;-43
2022/05/29 08:30:37;;;;;;;2.28;1.00;;;13.70;77.60;;;;;;5107222;28;20120;-43
2022/05/29 08:33:36;;;;;;;4.57;0.90;;;13.80;77.30;;;;;;5115999;28;20061;-45
2022/05/29 08:36:04;;;;;;;3.45;0.95;;;13.90;77.10;;;;;;5106984;28;20054;-43
2022/05/29 08:38:31;;;;;;;3.00;1.15;;;13.90;76.90;;;;;;5115910;28;20035;-42
2022/05/29 08:41:35;;;;;;;1.20;1.10;;;13.90;76.90;;;;;;5115721;28;20028;-43
2022/05/29 08:44:04;;;;;;;2.65;1.00;;;14.00;76.80;;;;;;5115719;28;20024;-40
2022/05/29 08:46:42;;;;;;;2.50;1.13;;;14.10;76.90;;;;;;5116242;28;20032;-41
2022/05/29 08:49:14;;;;;;;2.25;0.90;;;14.10;76.80;;;;;;5116099;28;20035;-42
2022/05/29 08:52:28;;;;;;;3.70;1.17;;;14.20;76.50;;;;;;5115706;28;20032;-42
2022/05/29 08:55:08;;;;;;;3.28;1.15;;;14.20;76.20;;;;;;5099272;28;20486;-42
2022/05/29 08:57:40;;;;;;;4.75;1.27;;;14.20;76.10;;;;;;5114710;28;20379;-44
2022/05/29 09:00:23;;;;;;;3.25;1.23;;;14.30;76.00;;;;;;5115763;28;20031;-41
2022/05/29 09:03:17;;;;;;;2.42;1.20;;;14.30;75.90;;;;;;5115344;28;20051;-42
2022/05/29 09:05:49;;;;;;;4.07;1.10;;;14.40;75.50;;;;;;5115378;28;20035;-39
2022/05/29 09:08:26;;;;;;;3.85;1.35;;;14.40;75.50;;;;;;5115237;28;20027;-43
2022/05/29 09:10:58;;;;;;;3.78;1.13;;;14.40;75.00;;;;;;5115283;28;20028;-43
2022/05/29 09:13:37;;;;;;;2.90;1.02;;;14.40;75.10;;;;;;5115308;28;20506;-42
2022/05/29 09:16:19;;;;;;;4.13;0.95;;;14.30;74.70;;;;;;5115347;28;20079;-42
2022/05/29 09:19:10;;;;;;;3.60;0.98;;;14.20;74.80;;;;;;5114930;28;20486;-42
2022/05/29 09:21:54;;;;;;;2.38;1.00;;;14.10;75.00;;;;;;5115272;28;20023;-30
2022/05/29 09:24:22;;;;;;;3.65;0.75;;;14.10;75.20;;;;;;5114784;27;20036;-29
2022/05/29 09:26:47;;;;;;;2.83;1.05;;;14.00;75.20;;;;;;5115120;28;20032;-28
2022/05/29 09:29:13;;;;;;;1.70;1.00;;;14.00;75.00;;;;;;5114851;28;20036;-32
2022/05/29 09:31:39;;;;;;;3.33;1.00;;;14.00;75.00;;;;;;5115022;28;20076;-27
2022/05/29 09:34:05;;;;;;;2.85;1.08;;;13.90;75.70;;;;;;5114710;28;20032;-32
2022/05/29 09:36:50;;;;;;;2.47;0.90;;;13.90;75.10;;;;;;5113354;28;20100;-30
2022/05/29 09:39:36;;;;;;;4.00;1.10;;;13.90;75.00;;;;;;5113238;28;20114;-34
2022/05/29 09:42:29;;;;;;;4.88;1.00;;;13.90;75.00;;;;;;5114408;28;20039;-32
2022/05/29 09:45:15;;;;;;;3.57;1.07;;;14.10;75.00;;;;;;5114377;28;20046;-30
2022/05/29 09:50:57;;;;;;;3.72;1.25;;;14.30;74.50;;;;;;5112195;28;20069;-47
2022/05/29 09:53:34;;;;;;;2.90;0.90;;;14.50;74.20;;;;;;5114295;28;20040;-47
2022/05/29 09:56:08;;;;;;;4.43;0.90;;;14.60;73.70;;;;;;5114491;28;20024;-47
2022/05/29 09:58:57;;;;;;;4.10;1.00;;;14.70;73.30;;;;;;5114067;28;20123;-47
2022/05/29 10:01:30;;;;;;;2.85;0.98;;;14.80;72.50;;;;;;5114712;28;20020;-45
2022/05/29 10:03:59;;;;;;;5.47;1.20;;;14.80;72.30;;;;;;5114213;28;20045;-48
2022/05/29 10:06:42;;;;;;;5.43;1.40;;;14.70;72.30;;;;;;5114200;28;20023;-46
2022/05/29 10:09:10;;;;;;;3.97;1.15;;;14.70;72.20;;;;;;5114346;28;20023;-45
2022/05/29 10:11:37;;;;;;;5.55;1.27;;;14.80;72.10;;;;;;5114026;28;20020;-47
2022/05/29 10:14:21;;;;;;;4.05;1.08;;;14.90;72.00;;;;;;5114211;28;20062;-46
2022/05/29 10:16:49;;;;;;;3.72;1.15;;;15.10;71.80;;;;;;5114266;28;20378;-45
2022/05/29 10:19:38;;;;;;;4.05;1.33;;;15.10;71.10;;;;;;5112533;28;20034;-46
2022/05/29 10:22:36;;;;;;;3.38;1.10;;;15.00;71.10;;;;;;5114160;28;20016;-46
2022/05/29 10:25:19;;;;;;;2.47;1.05;;;14.90;71.00;;;;;;5113772;28;20028;-45
2022/05/29 10:27:48;;;;;;;2.83;1.10;;;14.90;70.90;;;;;;5113819;28;20015;-46
2022/05/29 10:30:39;;;;;;;3.08;1.13;;;14.80;71.00;;;;;;5113594;28;20034;-46
2022/05/29 10:33:09;;;;;;;5.35;1.00;;;14.80;70.80;;;;;;5120758;28;20102;-46
2022/05/29 10:35:42;;;;;;;4.85;1.58;;;14.50;70.70;;;;;;5120185;28;20390;-46
2022/05/29 10:38:26;;;;;;;4.35;1.20;;;14.30;71.40;;;;;;5119130;28;20024;-46
2022/05/29 10:40:58;;;;;;;5.50;1.17;;;14.10;71.90;;;;;;5122998;28;20062;-46
2022/05/29 10:43:36;;;;;;;8.63;1.58;;;13.90;72.50;;;;;;5125658;28;20028;-47
2022/05/29 10:46:09;;;;;;;2.45;1.00;;;13.80;73.00;;;;;;5125460;28;20024;-46
2022/05/29 10:49:00;;;;;;;4.30;1.30;;;13.70;73.50;;;;;;5124810;28;20031;-46
2022/05/29 10:51:48;;;;;;;3.63;1.45;;;13.70;73.70;;;;;;5124442;28;20048;-46
2022/05/29 10:54:14;;;;;;;2.90;1.00;;;13.70;73.40;;;;;;5119037;28;20024;-46
2022/05/29 10:56:54;;;;;;;3.03;0.93;;;13.90;73.50;;;;;;5119157;28;20035;-46
2022/05/29 10:59:57;;;;;;;5.82;1.05;;;14.10;73.20;;;;;;5113822;28;20556;-45
2022/05/29 11:05:39;;;;;;;2.33;1.00;;;14.60;71.80;;;;;;5116054;28;20500;-46
2022/05/29 11:08:35;;;;;;;2.17;0.90;;;14.80;71.20;;;;;;5119258;28;20024;-46
2022/05/29 11:11:38;;;;;;;2.78;0.80;;;14.90;70.70;;;;;;5111690;28;20019;-46
2022/05/29 11:14:25;;;;;;;6.00;1.10;;;15.20;70.20;;;;;;5113112;28;20390;-47
2022/05/29 11:17:12;;;;;;;4.15;1.00;;;15.30;68.60;;;;;;5114421;28;20041;-47
2022/05/29 11:19:47;;;;;;;6.18;1.35;;;15.30;68.50;;;;;;5113733;28;20034;-46
2022/05/29 11:22:21;;;;;;;4.05;1.20;;;15.30;68.10;;;;;;5113203;28;20106;-46
2022/05/29 11:24:58;;;;;;;3.30;1.00;;;15.20;67.90;;;;;;5113338;28;20030;-46
2022/05/29 11:28:05;;;;;;;2.80;0.88;;;15.30;67.80;;;;;;5114661;28;20157;-46
2022/05/29 11:31:08;;;;;;;2.45;0.93;;;15.50;67.50;;;;;;5113707;28;20019;-46
2022/05/29 11:33:52;;;;;;;3.42;1.05;;;15.50;65.90;;;;;;5113032;28;20032;-41
2022/05/29 11:36:50;;;;;;;6.72;1.80;;;15.60;65.60;;;;;;5113533;28;20024;-40
2022/05/29 11:39:31;;;;;;;5.47;1.55;;;15.50;64.60;;;;;;5113122;28;20028;-40
2022/05/29 11:42:06;;;;;;;3.22;1.00;;;15.40;65.10;;;;;;5113411;28;20103;-40
2022/05/29 11:44:44;;;;;;;5.53;1.17;;;15.30;65.60;;;;;;5117231;28;20032;-40
2022/05/29 11:53:04;;;;;;;1.80;0.90;;;15.60;63.80;;;;;;5117017;28;20038;-40
2022/05/29 11:55:40;;;;;;;4.15;1.10;;;15.70;63.40;;;;;;5117173;28;20102;-40
2022/05/29 11:58:13;;;;;;;4.00;1.00;;;15.70;62.80;;;;;;5116735;28;20044;-47
2022/05/29 12:00:59;;;;;;;1.88;0.88;;;15.70;62.70;;;;;;5115422;28;20024;-38
2022/05/29 12:03:43;;;;;;;2.80;1.10;;;15.80;62.60;;;;;;5116664;28;20020;-45
2022/05/29 12:06:27;;;;;;;2.53;0.80;;;15.90;62.90;;;;;;5116995;28;20024;-41
2022/05/29 12:09:17;;;;;;;5.38;0.98;;;16.10;62.70;;;;;;5117190;28;20024;-41
2022/05/29 12:11:48;;;;;;;4.22;1.35;;;16.10;62.50;;;;;;5116630;28;20107;-40
2022/05/29 12:14:23;;;;;;;4.07;1.15;;;16.20;62.40;;;;;;5116503;28;20054;-39
2022/05/29 12:17:17;;;;;;;4.47;0.80;;;16.30;62.40;;;;;;5116504;28;20497;-41
2022/05/29 12:19:51;;;;;;;3.00;0.90;;;16.40;62.10;;;;;;5116507;28;20058;-51
2022/05/29 12:22:26;;;;;;;4.20;0.80;;;16.60;62.10;;;;;;5116284;28;20045;-41
2022/05/29 12:24:53;;;;;;;2.67;0.90;;;16.70;61.70;;;;;;5116275;28;20027;-40
2022/05/29 12:27:24;;;;;;;4.00;0.90;;;16.70;61.30;;;;;;5116268;28;20020;-42
2022/05/29 12:30:08;;;;;;;2.75;0.77;;;16.80;61.20;;;;;;5116498;28;20020;-40
2022/05/29 12:32:35;;;;;;;2.53;0.60;;;16.80;60.00;;;;;;5116079;28;20028;-41
2022/05/29 12:35:21;;;;;;;2.58;0.68;;;16.90;60.10;;;;;;5116345;28;20047;-40
2022/05/29 12:37:56;;;;;;;2.08;0.68;;;16.90;59.50;;;;;;5116078;28;20073;-41
2022/05/29 12:41:00;;;;;;;2.25;0.60;;;16.80;59.70;;;;;;5116526;28;20028;-41
2022/05/29 12:43:50;;;;;;;1.83;0.57;;;16.70;59.10;;;;;;5116172;28;20433;-40
2022/05/29 12:46:37;;;;;;;2.63;0.70;;;16.50;58.90;;;;;;5116087;28;20597;-41
2022/05/29 12:49:20;;;;;;;2.25;0.57;;;16.30;57.40;;;;;;5116110;28;20081;-40
2022/05/29 12:52:13;;;;;;;2.45;0.82;;;16.10;57.90;;;;;;5115849;28;20027;-43
2022/05/29 12:55:13;;;;;;;2.47;0.82;;;15.90;58.40;;;;;;5115092;28;20094;-41
2022/05/29 12:57:55;;;;;;;2.40;0.50;;;15.80;58.10;;;;;;5115525;28;20027;-39
2022/05/29 13:00:26;;;;;;;1.77;0.55;;;15.80;58.80;;;;;;5115838;28;20035;-41
2022/05/29 13:03:07;;;;;;;1.60;0.60;;;15.90;58.70;;;;;;5115696;28;20019;-40
2022/05/29 13:06:00;;;;;;;2.13;0.60;;;16.00;58.80;;;;;;5115921;27;20020;-40
2022/05/29 13:09:11;;;;;;;1.27;0.50;;;16.20;58.70;;;;;;5114485;28;20474;-40
2022/05/29 13:11:41;;;;;;;1.52;0.60;;;16.30;58.70;;;;;;5113110;28;20031;-40
2022/05/29 13:14:08;;;;;;;3.00;0.60;;;16.50;58.40;;;;;;5115338;28;20055;-42
2022/05/29 13:16:38;;;;;;;2.00;0.75;;;16.50;58.50;;;;;;5115610;28;20028;-40
2022/05/29 13:22:07;;;;;;;1.63;0.68;;;16.40;57.60;;;;;;5115892;27;20059;-39
2022/05/29 13:24:36;;;;;;;2.53;0.60;;;16.20;57.90;;;;;;5106032;28;20128;-47
2022/05/29 13:27:16;;;;;;;1.05;0.70;;;16.30;57.90;;;;;;5114964;28;20111;-40
2022/05/29 13:29:45;;;;;;;4.20;0.88;;;16.30;57.30;;;;;;5115141;28;20019;-39
2022/05/29 13:32:13;;;;;;;4.88;0.70;;;16.30;57.90;;;;;;5115959;28;20019;-40
2022/05/29 13:35:02;;;;;;;1.40;0.68;;;16.30;57.40;;;;;;5115147;28;20106;-39
2022/05/29 13:37:49;;;;;;;1.58;0.65;;;16.40;57.30;;;;;;5095350;28;20035;-40
2022/05/29 13:40:20;;;;;;;3.28;0.60;;;16.40;57.40;;;;;;5114656;28;20036;-40
2022/05/29 13:42:54;;;;;;;1.95;0.70;;;16.50;57.30;;;;;;5114671;28;20039;-41
2022/05/29 13:45:19;;;;;;;1.85;0.50;;;16.60;56.30;;;;;;5113428;28;20039;-41
2022/05/29 13:48:11;;;;;;;2.15;0.57;;;16.70;56.80;;;;;;5114885;28;20019;-38
2022/05/29 13:50:40;;;;;;;1.55;0.60;;;16.70;57.00;;;;;;5114772;28;20080;-40
2022/05/29 13:53:12;;;;;;;2.92;0.65;;;16.70;56.90;;;;;;5114651;28;20466;-39
2022/05/29 13:55:38;;;;;;;6.00;1.63;;;16.80;57.00;;;;;;5114493;28;20024;-36
2022/05/29 14:03:59;;;;;;;22.50;11.18;;;16.40;57.00;;;;;;5114394;28;20481;-41
2022/05/29 14:06:28;;;;;;;8.00;3.97;;;16.30;57.30;;;;;;5112898;28;20069;-41
2022/05/29 14:09:03;;;;;;;6.45;1.80;;;16.20;57.80;;;;;;5114330;28;20027;-51
2022/05/29 14:11:43;;;;;;;2.35;1.20;;;16.10;58.20;;;;;;5114468;28;20012;-40